Time;durP1;ratioP1;P1;durP2;ratioP2;P2;SDS_P1;SDS_P2;PMS_P1;PMS_P2;Temp;Humidity;BMP_temperature;BMP_pressure;BME280_temperature;BME280_humidity;BME280_pressure;Samples;Min_cycle;Max_cycle;Signal;HPM_P1;HPM_P2
2022/07/27 00:00:41;;;;;;;4.88;0.88;;;;;;;;;;5052639;28;20029;-73
2022/07/27 00:03:07;;;;;;;7.38;1.05;;;;;;;;;;5052231;28;20029;-73
2022/07/27 00:05:33;;;;;;;8.85;1.45;;;;;;;;;;5052847;28;20491;-73
2022/07/27 00:07:59;;;;;;;4.25;1.50;;;;;;;;;;5041818;28;20120;-73
2022/07/27 00:10:25;;;;;;;3.92;1.05;;;;;;;;;;5052604;28;20116;-72
2022/07/27 00:12:51;;;;;;;3.90;0.90;;;;;;;;;;5049366;28;20376;-73
2022/07/27 00:15:17;;;;;;;8.27;1.23;;;;;;;;;;5050854;28;20476;-72
2022/07/27 00:17:43;;;;;;;7.18;1.02;;;;;;;;;;5050009;28;20033;-72
2022/07/27 00:20:09;;;;;;;4.97;0.90;;;;;;;;;;5042414;28;20389;-72
2022/07/27 00:22:35;;;;;;;6.30;1.10;;;;;;;;;;5043415;28;20090;-72
2022/07/27 00:25:01;;;;;;;7.03;1.23;;;;;;;;;;5047709;28;20148;-72
2022/07/27 00:27:27;;;;;;;9.70;1.27;;;;;;;;;;5039069;28;20037;-72
2022/07/27 00:29:53;;;;;;;9.13;1.40;;;;;;;;;;5049772;28;20033;-73
2022/07/27 00:32:19;;;;;;;5.15;0.80;;;;;;;;;;5045946;28;20035;-72
2022/07/27 00:34:46;;;;;;;7.95;0.98;;;;;;;;;;5033674;28;20145;-72
2022/07/27 00:37:12;;;;;;;2.30;0.85;;;;;;;;;;5049819;28;20098;-73
2022/07/27 00:39:38;;;;;;;5.22;1.40;;;;;;;;;;5052068;28;20044;-72
2022/07/27 00:42:04;;;;;;;6.65;1.17;;;;;;;;;;5049117;28;20029;-72
2022/07/27 00:44:31;;;;;;;7.57;0.90;;;;;;;;;;5051642;28;20064;-72
2022/07/27 00:46:58;;;;;;;6.57;1.13;;;;;;;;;;5049149;28;20064;-72
2022/07/27 00:49:25;;;;;;;4.07;0.90;;;;;;;;;;5049295;28;20024;-72
2022/07/27 00:51:51;;;;;;;8.13;1.20;;;;;;;;;;5057241;28;20025;-73
2022/07/27 00:54:18;;;;;;;6.15;1.00;;;;;;;;;;5051063;28;20052;-72
2022/07/27 00:56:44;;;;;;;6.60;1.15;;;;;;;;;;5051732;28;20174;-72
2022/07/27 00:59:11;;;;;;;2.33;0.80;;;;;;;;;;5048642;28;20056;-72
2022/07/27 01:01:37;;;;;;;4.85;0.98;;;;;;;;;;5050812;28;20033;-72
2022/07/27 01:04:03;;;;;;;8.50;0.93;;;;;;;;;;5038482;28;20036;-72
2022/07/27 01:06:29;;;;;;;7.45;1.92;;;;;;;;;;5047553;28;20040;-73
2022/07/27 01:09:55;;;;;;;5.90;0.70;;;;;;;;;;5039653;28;20033;-73
2022/07/27 01:11:41;;;;;;;5.80;0.88;;;;;;;;;;5044762;28;20037;-73
2022/07/27 01:14:07;;;;;;;4.43;0.70;;;;;;;;;;5050489;28;20037;-72
2022/07/27 01:16:33;;;;;;;7.22;1.00;;;;;;;;;;5042510;28;20032;-72
2022/07/27 01:18:59;;;;;;;3.67;1.13;;;;;;;;;;5056316;28;20376;-72
2022/07/27 01:21:25;;;;;;;2.67;0.63;;;;;;;;;;5069285;28;20033;-73
2022/07/27 01:23:51;;;;;;;8.57;1.50;;;;;;;;;;5049435;28;20481;-72
2022/07/27 01:26:17;;;;;;;3.95;0.85;;;;;;;;;;5050073;28;20045;-73
2022/07/27 01:28:44;;;;;;;4.97;1.77;;;;;;;;;;5049230;28;20037;-73
2022/07/27 01:31:10;;;;;;;4.63;1.13;;;;;;;;;;5050694;28;20029;-73
2022/07/27 01:33:36;;;;;;;5.30;1.02;;;;;;;;;;5047569;28;20106;-73
2022/07/27 01:36:02;;;;;;;6.53;1.92;;;;;;;;;;5034527;28;20065;-73
2022/07/27 01:38:28;;;;;;;4.88;1.42;;;;;;;;;;5020158;28;20053;-72
2022/07/27 01:40:55;;;;;;;4.43;1.17;;;;;;;;;;5029117;28;20072;-73
2022/07/27 01:43:21;;;;;;;3.63;0.82;;;;;;;;;;5029464;28;20029;-73
2022/07/27 01:45:47;;;;;;;5.13;1.15;;;;;;;;;;5017979;28;20049;-73
2022/07/27 01:48:13;;;;;;;5.70;1.35;;;;;;;;;;5029084;28;20049;-73
2022/07/27 01:50:40;;;;;;;5.55;1.05;;;;;;;;;;5031374;28;20076;-73
2022/07/27 01:53:06;;;;;;;5.47;0.88;;;;;;;;;;5046395;28;20068;-73
2022/07/27 01:55:32;;;;;;;4.78;0.88;;;;;;;;;;5010862;28;20121;-72
2022/07/27 01:57:58;;;;;;;4.75;1.00;;;;;;;;;;5014673;28;20030;-73
2022/07/27 02:00:24;;;;;;;3.85;0.98;;;;;;;;;;5015838;28;20044;-73
2022/07/27 02:02:50;;;;;;;5.75;2.10;;;;;;;;;;5014998;28;20049;-73
2022/07/27 02:05:16;;;;;;;6.55;1.20;;;;;;;;;;5030940;28;20029;-72
2022/07/27 02:07:42;;;;;;;6.18;1.35;;;;;;;;;;5029978;28;20477;-72
2022/07/27 02:10:09;;;;;;;7.78;1.70;;;;;;;;;;5032718;28;20037;-72
2022/07/27 02:12:35;;;;;;;4.70;1.48;;;;;;;;;;5012575;28;20037;-73
2022/07/27 02:15:12;;;;;;;6.15;1.38;;;;;;;;;;5027058;28;20041;-73
2022/07/27 02:17:39;;;;;;;9.82;2.72;;;;;;;;;;5022941;28;20526;-73
2022/07/27 02:20:05;;;;;;;5.10;1.30;;;;;;;;;;5034723;28;20100;-73
2022/07/27 02:22:31;;;;;;;4.38;1.42;;;;;;;;;;5022121;28;20095;-72
2022/07/27 02:24:57;;;;;;;10.38;2.33;;;;;;;;;;5042202;28;20470;-73
2022/07/27 02:27:23;;;;;;;8.13;1.85;;;;;;;;;;5041449;28;20041;-73
2022/07/27 02:29:49;;;;;;;7.00;1.50;;;;;;;;;;5031119;28;20041;-72
2022/07/27 02:32:16;;;;;;;5.32;1.70;;;;;;;;;;5031264;28;20047;-72
2022/07/27 02:34:42;;;;;;;9.40;2.78;;;;;;;;;;5033541;28;20060;-72
2022/07/27 02:37:08;;;;;;;7.38;1.63;;;;;;;;;;5031319;28;20221;-73
2022/07/27 02:39:34;;;;;;;6.25;2.47;;;;;;;;;;5026602;28;20025;-72
2022/07/27 02:42:01;;;;;;;3.70;1.60;;;;;;;;;;5030960;28;20025;-72
2022/07/27 02:44:27;;;;;;;4.72;1.60;;;;;;;;;;5028792;28;20053;-73
2022/07/27 02:46:53;;;;;;;4.50;1.90;;;;;;;;;;5010839;28;20127;-73
2022/07/27 02:49:19;;;;;;;8.38;2.00;;;;;;;;;;5029517;28;20377;-73
2022/07/27 02:51:48;;;;;;;5.35;1.52;;;;;;;;;;5029105;28;20110;-72
2022/07/27 02:54:14;;;;;;;5.13;1.35;;;;;;;;;;5027456;28;20496;-71
2022/07/27 02:56:40;;;;;;;5.78;1.40;;;;;;;;;;5026078;28;20049;-75
2022/07/27 02:59:06;;;;;;;5.07;1.50;;;;;;;;;;5028576;28;20033;-74
2022/07/27 03:01:32;;;;;;;3.75;1.73;;;;;;;;;;5025978;28;20109;-74
2022/07/27 03:03:58;;;;;;;6.60;1.55;;;;;;;;;;5028866;28;20038;-77
2022/07/27 03:06:24;;;;;;;8.82;1.55;;;;;;;;;;5028778;28;20044;-73
2022/07/27 03:08:50;;;;;;;4.22;1.40;;;;;;;;;;5029000;28;20127;-75
2022/07/27 03:11:16;;;;;;;5.82;1.50;;;;;;;;;;5029845;28;20588;-73
2022/07/27 03:13:42;;;;;;;7.82;1.55;;;;;;;;;;5023970;28;20037;-73
2022/07/27 03:16:08;;;;;;;6.88;1.50;;;;;;;;;;5027167;28;20044;-74
2022/07/27 03:18:34;;;;;;;8.68;1.98;;;;;;;;;;5028016;28;20044;-73
2022/07/27 03:21:00;;;;;;;7.93;1.23;;;;;;;;;;5029540;28;20040;-73
2022/07/27 03:23:26;;;;;;;5.97;1.52;;;;;;;;;;5028782;28;20693;-75
2022/07/27 03:25:52;;;;;;;8.88;1.45;;;;;;;;;;5019373;28;20087;-74
2022/07/27 03:28:18;;;;;;;3.70;1.13;;;;;;;;;;5030442;28;20120;-74
2022/07/27 03:30:45;;;;;;;6.75;1.77;;;;;;;;;;5026879;28;20436;-74
2022/07/27 03:33:11;;;;;;;7.65;1.42;;;;;;;;;;5016255;28;20048;-74
2022/07/27 03:35:37;;;;;;;6.32;0.90;;;;;;;;;;5030521;28;20058;-75
2022/07/27 03:38:03;;;;;;;3.20;1.45;;;;;;;;;;5017193;28;20118;-74
2022/07/27 03:40:31;;;;;;;5.32;1.20;;;;;;;;;;5030953;28;20487;-74
2022/07/27 03:42:57;;;;;;;8.05;2.72;;;;;;;;;;5020774;28;20048;-74
2022/07/27 03:45:23;;;;;;;10.02;2.55;;;;;;;;;;5024452;28;20077;-74
2022/07/27 03:47:49;;;;;;;7.22;2.08;;;;;;;;;;5018161;28;20351;-72
2022/07/27 03:50:16;;;;;;;5.57;1.67;;;;;;;;;;5015821;28;20132;-72
2022/07/27 03:52:42;;;;;;;4.95;1.85;;;;;;;;;;5031946;28;20069;-74
2022/07/27 03:55:08;;;;;;;8.15;1.55;;;;;;;;;;5020507;28;20117;-75
2022/07/27 03:57:34;;;;;;;7.45;1.83;;;;;;;;;;5023273;28;20029;-73
2022/07/27 04:00:00;;;;;;;4.70;1.55;;;;;;;;;;5030405;28;20029;-73
2022/07/27 04:02:26;;;;;;;3.17;1.38;;;;;;;;;;5022079;28;20040;-74
2022/07/27 04:04:52;;;;;;;6.28;2.00;;;;;;;;;;5024370;28;20046;-75
2022/07/27 04:07:18;;;;;;;7.05;2.13;;;;;;;;;;5027291;28;20029;-75
2022/07/27 04:09:44;;;;;;;7.20;1.45;;;;;;;;;;5023575;28;20065;-74
2022/07/27 04:12:10;;;;;;;8.98;1.70;;;;;;;;;;5012696;28;20034;-74
2022/07/27 04:14:36;;;;;;;6.82;1.70;;;;;;;;;;5027660;28;20478;-70
2022/07/27 04:17:02;;;;;;;2.42;0.80;;;;;;;;;;5024167;28;20041;-71
2022/07/27 04:19:28;;;;;;;5.93;1.60;;;;;;;;;;5014923;28;20112;-71
2022/07/27 04:21:54;;;;;;;6.22;1.65;;;;;;;;;;5024101;28;20156;-73
2022/07/27 04:24:20;;;;;;;4.40;1.50;;;;;;;;;;5023226;28;20124;-74
2022/07/27 04:26:46;;;;;;;5.97;2.03;;;;;;;;;;5016753;28;20044;-73
2022/07/27 04:29:12;;;;;;;5.50;1.65;;;;;;;;;;5026942;28;20527;-73
2022/07/27 04:31:38;;;;;;;7.35;0.95;;;;;;;;;;5039240;28;20025;-73
2022/07/27 04:34:04;;;;;;;4.13;1.08;;;;;;;;;;5021852;28;20056;-73
2022/07/27 04:36:32;;;;;;;5.20;1.80;;;;;;;;;;5047579;28;20052;-74
2022/07/27 04:38:58;;;;;;;8.52;1.23;;;;;;;;;;5039548;28;20040;-73
2022/07/27 04:41:24;;;;;;;6.68;1.25;;;;;;;;;;5051429;28;20023;-74
2022/07/27 04:43:50;;;;;;;5.85;1.40;;;;;;;;;;5052396;28;20116;-73
2022/07/27 04:46:16;;;;;;;4.40;1.27;;;;;;;;;;5049255;28;20111;-73
2022/07/27 04:48:42;;;;;;;8.00;1.30;;;;;;;;;;5040987;28;20474;-75
2022/07/27 04:51:12;;;;;;;9.00;2.33;;;;;;;;;;5045146;28;20392;-74
2022/07/27 04:53:39;;;;;;;7.70;1.35;;;;;;;;;;5048764;28;20540;-73
2022/07/27 04:56:05;;;;;;;6.35;1.48;;;;;;;;;;5049697;28;20045;-74
2022/07/27 04:58:31;;;;;;;12.85;1.90;;;;;;;;;;5051340;28;20025;-74
2022/07/27 05:00:57;;;;;;;6.88;1.38;;;;;;;;;;5051618;28;20033;-73
2022/07/27 05:03:23;;;;;;;6.25;1.17;;;;;;;;;;5031588;28;20055;-73
2022/07/27 05:05:49;;;;;;;7.78;3.03;;;;;;;;;;5051687;28;20024;-71
2022/07/27 05:08:15;;;;;;;18.70;5.63;;;;;;;;;;5039105;28;20110;-72
2022/07/27 05:10:42;;;;;;;10.05;2.22;;;;;;;;;;5052135;28;20052;-73
2022/07/27 05:13:08;;;;;;;7.20;0.95;;;;;;;;;;5048386;28;20028;-73
2022/07/27 05:15:34;;;;;;;5.72;1.20;;;;;;;;;;5052057;28;20048;-72
2022/07/27 05:18:00;;;;;;;5.70;1.08;;;;;;;;;;5048207;28;20473;-73
2022/07/27 05:20:27;;;;;;;7.30;1.65;;;;;;;;;;5057311;28;20048;-72
2022/07/27 05:22:53;;;;;;;6.15;1.15;;;;;;;;;;5050984;28;20029;-73
2022/07/27 05:25:20;;;;;;;8.55;1.40;;;;;;;;;;5048982;28;20100;-73
2022/07/27 05:27:46;;;;;;;8.63;1.65;;;;;;;;;;5050559;28;20067;-73
2022/07/27 05:30:13;;;;;;;7.85;1.65;;;;;;;;;;5050135;28;20025;-72
2022/07/27 05:32:39;;;;;;;6.57;1.38;;;;;;;;;;5051922;28;20108;-73
2022/07/27 05:35:05;;;;;;;8.25;1.30;;;;;;;;;;5049953;28;20143;-73
2022/07/27 05:37:31;;;;;;;6.45;1.35;;;;;;;;;;5049667;28;20040;-73
2022/07/27 05:39:57;;;;;;;7.65;1.35;;;;;;;;;;5050727;28;20033;-73
2022/07/27 05:42:23;;;;;;;9.15;1.55;;;;;;;;;;5051629;28;20086;-73
2022/07/27 05:44:52;;;;;;;9.95;1.70;;;;;;;;;;5032161;28;20095;-73
2022/07/27 05:47:18;;;;;;;8.20;1.63;;;;;;;;;;5048729;28;20746;-73
2022/07/27 05:49:44;;;;;;;5.60;1.40;;;;;;;;;;5049356;28;20108;-73
2022/07/27 05:52:11;;;;;;;6.13;1.08;;;;;;;;;;5051022;28;20041;-73
2022/07/27 05:54:37;;;;;;;5.03;0.95;;;;;;;;;;5050638;28;20069;-73
2022/07/27 05:57:03;;;;;;;6.70;1.50;;;;;;;;;;5057756;28;20635;-73
2022/07/27 05:59:31;;;;;;;10.70;1.85;;;;;;;;;;5059351;28;20384;-73
2022/07/27 06:01:57;;;;;;;8.40;2.97;;;;;;;;;;5036990;28;20064;-73
2022/07/27 06:04:24;;;;;;;6.25;1.60;;;;;;;;;;5049499;28;20079;-73
2022/07/27 06:09:34;;;;;;;6.22;1.23;;;;;;;;;;5049546;28;20039;-73
2022/07/27 06:12:00;;;;;;;7.78;1.73;;;;;;;;;;5063229;28;20033;-73
2022/07/27 06:14:26;;;;;;;6.68;2.20;;;;;;;;;;5056454;28;20094;-73
2022/07/27 06:16:53;;;;;;;8.68;1.65;;;;;;;;;;5049667;28;20041;-74
2022/07/27 06:19:19;;;;;;;6.68;1.48;;;;;;;;;;5048153;28;20025;-74
2022/07/27 06:21:45;;;;;;;7.85;1.48;;;;;;;;;;5044481;28;20391;-73
2022/07/27 06:24:11;;;;;;;4.63;1.38;;;;;;;;;;5043118;28;20901;-73
2022/07/27 06:26:37;;;;;;;8.95;1.45;;;;;;;;;;5043193;28;20118;-71
2022/07/27 06:29:03;;;;;;;7.97;1.20;;;;;;;;;;5025846;28;20041;-73
2022/07/27 06:31:29;;;;;;;10.07;1.42;;;;;;;;;;5045765;28;20385;-73
2022/07/27 06:33:56;;;;;;;7.05;1.65;;;;;;;;;;5053915;28;20536;-73
2022/07/27 06:36:23;;;;;;;8.98;1.30;;;;;;;;;;5025360;28;20049;-73
2022/07/27 06:38:49;;;;;;;11.50;1.65;;;;;;;;;;5028250;28;20083;-70
2022/07/27 06:41:15;;;;;;;5.93;1.38;;;;;;;;;;5017853;28;20041;-71
2022/07/27 06:43:41;;;;;;;10.57;1.50;;;;;;;;;;5020699;28;20033;-73
2022/07/27 06:46:11;;;;;;;4.78;1.02;;;;;;;;;;5025388;28;20041;-71
2022/07/27 06:48:37;;;;;;;8.50;2.08;;;;;;;;;;5026507;28;20026;-73
2022/07/27 06:51:03;;;;;;;10.07;1.30;;;;;;;;;;5029202;28;20064;-73
2022/07/27 06:53:29;;;;;;;6.93;1.67;;;;;;;;;;5030481;28;20109;-70
2022/07/27 06:55:58;;;;;;;5.90;1.10;;;;;;;;;;5028877;28;20121;-70
2022/07/27 06:58:24;;;;;;;6.60;1.70;;;;;;;;;;5015623;28;20030;-71
2022/07/27 07:00:50;;;;;;;4.20;0.98;;;;;;;;;;5028846;28;20504;-72
2022/07/27 07:03:16;;;;;;;5.85;0.95;;;;;;;;;;5026288;28;20073;-72
2022/07/27 07:05:46;;;;;;;6.78;0.80;;;;;;;;;;5027296;28;20445;-71
2022/07/27 07:08:13;;;;;;;7.72;1.42;;;;;;;;;;5014826;28;20042;-71
2022/07/27 07:10:39;;;;;;;7.20;1.15;;;;;;;;;;5032127;28;21229;-71
2022/07/27 07:13:06;;;;;;;6.88;1.38;;;;;;;;;;5030989;28;20026;-71
2022/07/27 07:15:32;;;;;;;5.22;1.23;;;;;;;;;;5027581;28;20030;-71
2022/07/27 07:17:58;;;;;;;6.88;1.00;;;;;;;;;;5034530;28;20061;-71
2022/07/27 07:20:24;;;;;;;5.22;1.05;;;;;;;;;;5031969;28;20388;-71
2022/07/27 07:22:50;;;;;;;6.78;1.48;;;;;;;;;;5032977;28;20033;-71
2022/07/27 07:25:16;;;;;;;6.18;0.88;;;;;;;;;;5029970;28;20064;-71
2022/07/27 07:27:42;;;;;;;8.93;0.88;;;;;;;;;;5032475;28;20064;-71
2022/07/27 07:30:09;;;;;;;7.63;1.25;;;;;;;;;;5032992;28;20128;-71
2022/07/27 07:32:35;;;;;;;4.63;0.88;;;;;;;;;;5031716;28;20454;-71
2022/07/27 07:35:03;;;;;;;6.35;0.93;;;;;;;;;;5035503;28;20492;-71
2022/07/27 07:37:29;;;;;;;10.95;2.28;;;22.20;99.90;;;;;;5025443;28;20116;-71
2022/07/27 07:39:55;;;;;;;5.65;0.82;;;;;;;;;;5033352;28;20113;-71
2022/07/27 07:42:21;;;;;;;5.80;1.40;;;;;;;;;;5045294;28;20372;-71
2022/07/27 07:44:47;;;;;;;5.95;1.05;;;;;;;;;;5040907;28;20388;-72
2022/07/27 07:47:13;;;;;;;5.45;0.90;;;;;;;;;;5035789;28;20022;-73
2022/07/27 07:49:39;;;;;;;6.32;0.70;;;;;;;;;;5047234;28;20036;-72
2022/07/27 07:52:06;;;;;;;3.08;0.73;;;;;;;;;;5041530;28;20021;-72
2022/07/27 07:54:32;;;;;;;4.13;0.70;;;;;;;;;;5032457;28;20509;-72
2022/07/27 07:56:58;;;;;;;4.93;0.85;;;;;;;;;;5034771;28;20389;-72
2022/07/27 07:59:24;;;;;;;3.70;1.00;;;;;;;;;;5041174;28;20049;-72
2022/07/27 08:01:50;;;;;;;4.28;0.80;;;;;;;;;;5039248;28;20079;-73
2022/07/27 08:04:16;;;;;;;5.32;0.80;;;;;;;;;;5033004;28;20121;-72
2022/07/27 08:06:42;;;;;;;6.80;0.80;;;;;;;;;;5018920;28;20124;-72
2022/07/27 08:09:08;;;;;;;6.90;2.85;;;;;;;;;;5019495;28;20116;-71
2022/07/27 08:11:35;;;;;;;6.78;2.08;;;;;;;;;;5019929;28;20094;-71
2022/07/27 08:14:02;;;;;;;6.30;1.00;;;;;;;;;;5031057;28;20036;-70
2022/07/27 08:16:28;;;;;;;7.10;1.23;;;;;;;;;;5026243;28;20649;-70
2022/07/27 08:18:54;;;;;;;5.43;1.02;;;;;;;;;;5023162;28;20092;-71
2022/07/27 08:21:20;;;;;;;4.30;0.85;;;;;;;;;;5022635;28;20485;-71
2022/07/27 08:23:46;;;;;;;2.40;0.60;;;;;;;;;;5015273;28;20080;-71
2022/07/27 08:26:12;;;;;;;8.25;1.30;;;;;;;;;;5032624;28;20073;-71
2022/07/27 08:28:38;;;;;;;4.75;1.00;;;;;;;;;;5017116;28;20095;-71
2022/07/27 08:31:04;;;;;;;5.03;0.80;;;;;;;;;;5043219;28;20548;-71
2022/07/27 08:33:30;;;;;;;4.63;0.80;;;;;;;;;;4996016;28;20080;-71
2022/07/27 08:35:56;;;;;;;6.55;1.27;;;;;;;;;;5041516;28;20089;-71
2022/07/27 08:38:22;;;;;;;3.92;0.68;;;;;;;;;;5013899;28;20120;-71
2022/07/27 08:40:49;;;;;;;4.03;0.68;;;;;;;;;;5030627;28;20048;-71
2022/07/27 08:43:16;;;;;;;6.07;0.68;;;;;;;;;;5032990;28;20466;-71
2022/07/27 08:45:44;;;;;;;6.70;0.75;;;;;;;;;;5026014;28;20036;-71
2022/07/27 08:48:14;;;;;;;5.88;1.13;;;;;;;;;;5031685;28;20112;-71
2022/07/27 08:50:41;;;;;;;9.23;2.25;;;;;;;;;;5028716;28;20033;-72
2022/07/27 08:53:08;;;;;;;4.18;0.90;;;;;;;;;;5030482;28;20026;-71
2022/07/27 08:55:35;;;;;;;4.90;0.98;;;;;;;;;;5029357;28;20057;-71
2022/07/27 08:58:01;;;;;;;5.00;1.17;;;;;;;;;;5018726;28;20535;-71
2022/07/27 09:00:28;;;;;;;5.22;0.75;;;;;;;;;;5026790;28;20048;-71
2022/07/27 09:02:54;;;;;;;5.15;0.95;;;;;;;;;;5030860;28;20473;-71
2022/07/27 09:05:20;;;;;;;7.95;0.70;;;;;;;;;;5030988;28;20037;-71
2022/07/27 09:07:47;;;;;;;7.25;0.80;;;19.60;99.90;;;;;;5031440;28;20041;-71
2022/07/27 09:10:28;;;;;;;7.78;0.82;;;;;;;;;;5011301;28;20033;-70
2022/07/27 09:12:54;;;;;;;5.43;0.90;;;;;;;;;;5030418;28;20484;-71
2022/07/27 09:15:20;;;;;;;10.35;2.40;;;;;;;;;;5028453;28;20076;-70
2022/07/27 09:17:46;;;;;;;6.68;1.10;;;;;;;;;;5030771;28;20426;-71
2022/07/27 09:20:17;;;;;;;10.48;0.93;;;;;;;;;;4997251;28;20547;-71
2022/07/27 09:22:52;;;;;;;6.88;0.90;;;;;;;;;;5027166;28;20433;-71
2022/07/27 09:25:22;;;;;;;5.15;0.70;;;;;;;;;;5030165;28;20034;-71
2022/07/27 09:27:48;;;;;;;4.78;0.98;;;;;;;;;;5022989;28;20033;-71
2022/07/27 09:30:19;;;;;;;4.15;0.75;;;20.50;99.90;;;;;;5019181;28;20477;-71
2022/07/27 09:32:52;;;;;;;4.13;0.93;;;;;;;;;;5028581;28;20112;-71
2022/07/27 09:35:20;;;;;;;3.70;0.80;;;;;;;;;;5028066;28;20044;-71
2022/07/27 09:37:46;;;;;;;2.85;0.82;;;;;;;;;;5049358;28;20060;-71
2022/07/27 09:40:14;;;;;;;6.82;0.90;;;;;;;;;;5058974;28;20064;-70
2022/07/27 09:42:40;;;;;;;4.90;0.90;;;;;;;;;;5050430;28;20405;-70
2022/07/27 09:45:27;;;;;;;6.15;0.90;;;19.50;99.90;;;;;;5047366;28;20055;-71
2022/07/27 09:47:54;;;;;;;7.57;0.90;;;;;;;;;;5051477;28;20075;-71
2022/07/27 09:50:26;;;;;;;6.07;1.08;;;;;;;;;;5057189;28;20091;-71
2022/07/27 09:52:52;;;;;;;;;;;;;;;;;;5028557;28;20105;-71
2022/07/27 09:55:21;;;;;;;3.30;0.90;;;;;;;;;;5044805;28;19938;-71
2022/07/27 09:57:54;;;;;;;4.13;1.30;;;;;;;;;;5032738;28;20040;-71
2022/07/27 10:00:21;;;;;;;5.18;0.88;;;20.20;99.90;;;;;;5048759;28;20033;-71
2022/07/27 10:02:49;;;;;;;5.35;1.02;;;;;;;;;;5028043;28;20034;-71
2022/07/27 10:05:18;;;;;;;5.60;1.00;;;;;;;;;;5049535;28;20052;-70
2022/07/27 10:07:44;;;;;;;7.75;2.22;;;;;;;;;;5045453;28;20385;-70
2022/07/27 10:10:13;;;;;;;7.50;1.15;;;21.20;99.90;;;;;;5047082;28;20033;-71
2022/07/27 10:12:40;;;;;;;6.15;1.77;;;21.70;99.40;;;;;;5011827;28;20037;-71
2022/07/27 10:15:06;;;;;;;6.40;0.98;;;;;;;;;;5044386;28;20044;-71
2022/07/27 10:17:32;;;;;;;4.45;0.73;;;;;;;;;;5057189;28;20107;-72
2022/07/27 10:20:02;;;;;;;3.72;0.90;;;22.70;99.90;;;;;;5038444;28;20033;-71
2022/07/27 10:22:47;;;;;;;5.68;1.08;;;22.70;95.70;;;;;;5039198;28;20036;-72
2022/07/27 10:25:13;;;;;;;3.80;0.60;;;;;;;;;;5047034;28;20492;-72
2022/07/27 10:27:40;;;;;;;3.75;0.60;;;;;;;;;;5053333;28;20492;-72
2022/07/27 10:30:06;;;;;;;3.47;1.08;;;21.10;99.90;;;;;;5054970;28;20033;-72
2022/07/27 10:32:33;;;;;;;4.45;0.80;;;;;;;;;;5048898;28;20056;-71
2022/07/27 10:35:00;;;;;;;4.20;0.65;;;;;;;;;;5049423;28;20059;-71
2022/07/27 10:37:32;;;;;;;5.50;0.85;;;;;;;;;;5047216;28;20565;-71
2022/07/27 10:42:50;;;;;;;2.33;0.63;;;;;;;;;;5045918;28;20044;-71
2022/07/27 10:45:17;;;;;;;4.60;0.73;;;;;;;;;;5055140;28;20159;-71
2022/07/27 10:47:49;;;;;;;5.18;0.80;;;;;;;;;;5049807;28;20036;-71
2022/07/27 10:50:15;;;;;;;4.13;0.50;;;;;;;;;;5035200;28;20029;-72
2022/07/27 10:52:41;;;;;;;3.58;0.68;;;;;;;;;;5054063;28;20035;-72
2022/07/27 10:55:08;;;;;;;4.63;0.90;;;;;;;;;;5053109;28;20083;-72
2022/07/27 10:57:37;;;;;;;5.55;1.17;;;;;;;;;;5057345;28;20033;-73
2022/07/27 11:00:08;;;;;;;2.65;0.75;;;;;;;;;;5043760;28;20037;-72
2022/07/27 11:02:41;;;;;;;4.07;0.60;;;;;;;;;;5021288;28;20082;-70
2022/07/27 11:05:07;;;;;;;5.05;1.58;;;;;;;;;;5027360;28;20043;-71
2022/07/27 11:07:34;;;;;;;3.00;0.70;;;;;;;;;;5057504;28;20031;-72
2022/07/27 11:10:00;;;;;;;5.75;0.60;;;21.70;99.90;;;;;;5058541;28;20173;-72
2022/07/27 11:12:30;;;;;;;1.45;0.50;;;;;;;;;;5036171;28;20082;-72
2022/07/27 11:14:56;;;;;;;2.15;0.60;;;;;;;;;;5035807;28;20033;-72
2022/07/27 11:17:28;;;;;;;3.47;0.70;;;22.70;95.20;;;;;;5059561;28;20037;-72
2022/07/27 11:19:58;;;;;;;9.35;4.40;;;23.00;94.80;;;;;;5065835;28;20487;-71
2022/07/27 11:22:38;;;;;;;4.75;1.27;;;23.40;93.00;;;;;;5048488;28;20391;-73
2022/07/27 11:25:05;;;;;;;3.30;0.60;;;23.30;93.00;;;;;;5052619;28;20036;-72
2022/07/27 11:27:32;;;;;;;2.40;0.43;;;;;;;;;;5049600;28;20037;-70
2022/07/27 11:29:57;;;;;;;4.20;0.80;;;23.50;99.10;;;;;;5053433;28;20037;-71
2022/07/27 11:32:24;;;;;;;8.70;1.13;;;23.40;93.50;;;;;;5050003;28;20361;-70
2022/07/27 11:34:51;;;;;;;4.57;0.52;;;23.50;93.80;;;;;;5045689;28;20040;-71
2022/07/27 11:37:21;;;;;;;2.25;0.50;;;;;;;;;;5028863;28;20095;-71
2022/07/27 11:39:47;;;;;;;7.47;0.68;;;;;;;;;;5056139;28;20654;-73
2022/07/27 11:42:17;;;;;;;4.13;0.50;;;;;;;;;;5036037;28;20036;-71
2022/07/27 11:44:44;;;;;;;1.75;0.30;;;;;;;;;;5036476;28;20065;-71
2022/07/27 11:47:15;;;;;;;1.42;0.38;;;;;;;;;;5038723;28;20025;-72
2022/07/27 11:49:41;;;;;;;6.32;0.50;;;;;;;;;;5052700;28;20033;-71
2022/07/27 11:52:08;;;;;;;4.45;2.95;;;;;;;;;;5038642;28;20096;-70
2022/07/27 11:54:35;;;;;;;0.77;0.40;;;;;;;;;;5053053;28;20029;-70
2022/07/27 11:57:03;;;;;;;1.77;0.38;;;;;;;;;;5046626;28;20036;-71
2022/07/27 11:59:30;;;;;;;2.80;0.30;;;;;;;;;;5036903;28;20071;-72
2022/07/27 12:02:01;;;;;;;2.75;0.52;;;23.50;92.10;;;;;;5041394;28;20033;-72
2022/07/27 12:04:31;;;;;;;3.85;0.70;;;;;;;;;;5031995;28;20098;-72
2022/07/27 12:06:58;;;;;;;4.40;0.60;;;;;;;;;;5051828;28;20111;-72
2022/07/27 12:09:25;;;;;;;4.50;0.65;;;;;;;;;;5051780;28;20071;-72
2022/07/27 12:12:17;;;;;;;1.80;0.40;;;;;;;;;;5043325;28;20025;-71
2022/07/27 12:14:44;;;;;;;2.78;0.40;;;;;;;;;;5031619;28;20153;-71
2022/07/27 12:17:13;;;;;;;2.40;0.75;;;;;;;;;;5036562;28;20154;-72
2022/07/27 12:19:39;;;;;;;3.03;0.75;;;;;;;;;;5035305;28;20072;-71
2022/07/27 12:22:06;;;;;;;3.10;0.40;;;;;;;;;;5040810;28;20033;-71
2022/07/27 12:24:40;;;;;;;2.78;0.60;;;;;;;;;;5052735;28;20036;-72
2022/07/27 12:27:08;;;;;;;1.77;0.43;;;;;;;;;;5044044;28;20032;-72
2022/07/27 12:30:01;;;;;;;4.10;0.60;;;21.80;95.00;;;;;;5045081;28;20029;-71
2022/07/27 12:32:29;;;;;;;4.47;0.65;;;;;;;;;;5036407;28;20492;-71
2022/07/27 12:34:55;;;;;;;2.42;0.50;;;21.60;99.90;;;;;;5044857;28;20032;-72
2022/07/27 12:37:21;;;;;;;2.10;0.45;;;;;;;;;;5042696;28;20053;-71
2022/07/27 12:39:49;;;;;;;3.38;0.60;;;;;;;;;;5039887;28;20037;-71
2022/07/27 12:42:15;;;;;;;4.20;0.43;;;22.20;99.60;;;;;;5051801;28;20566;-72
2022/07/27 12:44:43;;;;;;;2.92;0.70;;;;;;;;;;5043981;28;20078;-73
2022/07/27 12:50:12;;;;;;;1.73;0.35;;;22.40;93.00;;;;;;5047756;28;20132;-71
2022/07/27 12:52:56;;;;;;;5.10;0.68;;;22.10;95.00;;;;;;5048981;28;20029;-71
2022/07/27 12:55:22;;;;;;;4.88;0.90;;;;;;;;;;5039125;28;20029;-71
2022/07/27 12:57:49;;;;;;;8.93;0.70;;;;;;;;;;5037985;28;20025;-71
2022/07/27 13:00:17;;;;;;;3.28;0.55;;;21.60;95.10;;;;;;5057302;28;20473;-71
2022/07/27 13:02:44;;;;;;;3.97;1.08;;;;;;;;;;5050062;28;20094;-72
2022/07/27 13:05:11;;;;;;;2.13;0.57;;;;;;;;;;5019229;28;20483;-71
2022/07/27 13:07:38;;;;;;;2.33;0.40;;;21.50;95.50;;;;;;5030751;28;20028;-72
2022/07/27 13:10:05;;;;;;;2.53;0.70;;;;;;;;;;5028519;28;20097;-73
2022/07/27 13:12:31;;;;;;;3.95;0.68;;;;;;;;;;5027351;28;20033;-73
2022/07/27 13:14:58;;;;;;;3.45;0.90;;;;;;;;;;5032819;28;20119;-73
2022/07/27 13:17:24;;;;;;;5.38;0.70;;;;;;;;;;5033032;28;20473;-72
2022/07/27 13:19:50;;;;;;;3.15;0.68;;;;;;;;;;5028067;28;20068;-72
2022/07/27 13:22:16;;;;;;;4.85;0.60;;;;;;;;;;5031500;28;20109;-73
2022/07/27 13:24:42;;;;;;;5.63;0.95;;;;;;;;;;5030392;28;20183;-72
2022/07/27 13:27:08;;;;;;;3.00;1.23;;;22.10;99.90;;;;;;5033184;28;20036;-72
2022/07/27 13:29:34;;;;;;;2.10;0.65;;;;;;;;;;5029483;28;20029;-73
2022/07/27 13:32:00;;;;;;;4.22;0.52;;;23.00;99.50;;;;;;5033280;28;20025;-71
2022/07/27 13:34:26;;;;;;;3.20;0.85;;;;;;;;;;5041282;28;20056;-72
2022/07/27 13:36:52;;;;;;;2.75;0.70;;;;;;;;;;5028534;28;20060;-72
2022/07/27 13:39:18;;;;;;;6.95;0.82;;;;;;;;;;5030942;28;20037;-73
2022/07/27 13:41:50;;;;;;;3.80;0.70;;;;;;;;;;5030618;28;20091;-72
2022/07/27 13:44:16;;;;;;;4.07;0.50;;;;;;;;;;5031112;28;20025;-73
2022/07/27 13:46:42;;;;;;;3.40;0.50;;;;;;;;;;5014971;28;20045;-72
2022/07/27 13:49:08;;;;;;;2.17;0.60;;;;;;;;;;5013564;28;20034;-72
2022/07/27 13:51:34;;;;;;;4.50;0.73;;;23.30;99.00;;;;;;5023039;28;20038;-72
2022/07/27 13:54:00;;;;;;;5.95;1.33;;;;;;;;;;5025848;28;20044;-71
2022/07/27 13:56:28;;;;;;;4.18;0.70;;;;;;;;;;5028181;28;20034;-71
2022/07/27 13:58:55;;;;;;;7.13;0.73;;;;;;;;;;5029932;28;20037;-71
2022/07/27 14:01:21;;;;;;;2.90;0.80;;;;;;;;;;5026862;28;20041;-72
2022/07/27 14:03:47;;;;;;;3.90;0.68;;;22.30;99.90;;;;;;5009574;28;20035;-71
2022/07/27 14:06:13;;;;;;;1.30;0.40;;;;;;;;;;5041101;28;20514;-72
2022/07/27 14:08:39;;;;;;;5.18;1.15;;;;;;;;;;5027937;28;20036;-72
2022/07/27 14:11:05;;;;;;;2.90;0.70;;;;;;;;;;5027911;28;20443;-73
2022/07/27 14:13:32;;;;;;;3.60;0.63;;;22.00;99.90;;;;;;5025587;28;20485;-73
2022/07/27 14:15:58;;;;;;;8.88;1.27;;;;;;;;;;5022833;28;20039;-71
2022/07/27 14:18:26;;;;;;;3.70;0.90;;;;;;;;;;5029682;28;20440;-71
2022/07/27 14:20:53;;;;;;;2.05;0.88;;;22.50;99.60;;;;;;5017097;28;20032;-72
2022/07/27 14:23:19;;;;;;;2.40;0.60;;;;;;;;;;5026134;28;20531;-73
2022/07/27 14:25:45;;;;;;;3.08;0.60;;;;;;;;;;5033968;28;20055;-72
2022/07/27 14:28:11;;;;;;;2.45;0.70;;;;;;;;;;5010733;28;20061;-72
2022/07/27 14:30:37;;;;;;;2.28;0.70;;;;;;;;;;5027184;28;21032;-72
2022/07/27 14:33:03;;;;;;;3.47;0.40;;;;;;;;;;5028301;28;20052;-72
2022/07/27 14:35:29;;;;;;;5.07;0.90;;;;;;;;;;5026033;28;20477;-72
2022/07/27 14:37:57;;;;;;;3.33;0.47;;;;;;;;;;5046044;28;20045;-72